sensor_id;sensor_type;location;lat;lon;timestamp;P1;durP1;ratioP1;P2;durP2;ratioP2
68858;SDS011;55864;49.238;8.092;2023-06-22T00:00:17;9.18;;;4.22;;
68858;SDS011;55864;49.238;8.092;2023-06-22T00:02:18;6.97;;;3.88;;
68858;SDS011;55864;49.238;8.092;2023-06-22T00:04:19;8.32;;;4.40;;
68858;SDS011;55864;49.238;8.092;2023-06-22T00:06:19;9.50;;;4.10;;
68858;SDS011;55864;49.238;8.092;2023-06-22T00:08:21;8.18;;;4.22;;
68858;SDS011;55864;49.238;8.092;2023-06-22T00:10:22;8.82;;;4.80;;
68858;SDS011;55864;49.238;8.092;2023-06-22T00:12:22;12.98;;;4.40;;
68858;SDS011;55864;49.238;8.092;2023-06-22T00:14:23;8.57;;;4.22;;
68858;SDS011;55864;49.238;8.092;2023-06-22T00:16:23;8.38;;;4.47;;
68858;SDS011;55864;49.238;8.092;2023-06-22T00:18:24;10.05;;;4.47;;
68858;SDS011;55864;49.238;8.092;2023-06-22T00:20:24;8.68;;;4.45;;
68858;SDS011;55864;49.238;8.092;2023-06-22T00:22:25;9.65;;;4.43;;
68858;SDS011;55864;49.238;8.092;2023-06-22T00:24:27;7.82;;;4.40;;
68858;SDS011;55864;49.238;8.092;2023-06-22T00:26:28;17.13;;;6.00;;
68858;SDS011;55864;49.238;8.092;2023-06-22T00:28:30;31.80;;;7.05;;
68858;SDS011;55864;49.238;8.092;2023-06-22T00:30:31;14.60;;;5.88;;
68858;SDS011;55864;49.238;8.092;2023-06-22T00:32:32;13.27;;;5.80;;
68858;SDS011;55864;49.238;8.092;2023-06-22T00:34:33;10.93;;;5.00;;
68858;SDS011;55864;49.238;8.092;2023-06-22T00:36:33;11.00;;;5.00;;
68858;SDS011;55864;49.238;8.092;2023-06-22T00:38:34;10.40;;;4.70;;
68858;SDS011;55864;49.238;8.092;2023-06-22T00:40:37;10.95;;;4.60;;
68858;SDS011;55864;49.238;8.092;2023-06-22T00:42:37;11.30;;;4.82;;
68858;SDS011;55864;49.238;8.092;2023-06-22T00:44:38;9.88;;;5.03;;
68858;SDS011;55864;49.238;8.092;2023-06-22T00:46:39;10.70;;;5.05;;
68858;SDS011;55864;49.238;8.092;2023-06-22T00:48:39;9.85;;;5.00;;
68858;SDS011;55864;49.238;8.092;2023-06-22T00:50:40;11.80;;;4.80;;
68858;SDS011;55864;49.238;8.092;2023-06-22T00:52:41;11.98;;;4.97;;
68858;SDS011;55864;49.238;8.092;2023-06-22T00:54:41;11.10;;;5.07;;
68858;SDS011;55864;49.238;8.092;2023-06-22T00:56:43;11.18;;;4.85;;
68858;SDS011;55864;49.238;8.092;2023-06-22T00:58:44;9.63;;;4.75;;
68858;SDS011;55864;49.238;8.092;2023-06-22T01:00:44;10.75;;;4.40;;
68858;SDS011;55864;49.238;8.092;2023-06-22T01:02:45;10.73;;;5.22;;
68858;SDS011;55864;49.238;8.092;2023-06-22T01:04:46;9.43;;;4.68;;
68858;SDS011;55864;49.238;8.092;2023-06-22T01:06:50;10.52;;;5.05;;
68858;SDS011;55864;49.238;8.092;2023-06-22T01:08:57;10.15;;;4.97;;
68858;SDS011;55864;49.238;8.092;2023-06-22T01:11:05;10.32;;;5.35;;
68858;SDS011;55864;49.238;8.092;2023-06-22T01:13:14;11.85;;;5.30;;
68858;SDS011;55864;49.238;8.092;2023-06-22T01:15:23;10.10;;;4.90;;
68858;SDS011;55864;49.238;8.092;2023-06-22T01:17:28;9.85;;;5.05;;
68858;SDS011;55864;49.238;8.092;2023-06-22T01:19:35;9.13;;;4.80;;
68858;SDS011;55864;49.238;8.092;2023-06-22T01:21:39;9.02;;;5.00;;
68858;SDS011;55864;49.238;8.092;2023-06-22T01:23:44;10.98;;;4.65;;
68858;SDS011;55864;49.238;8.092;2023-06-22T01:25:57;8.70;;;5.00;;
68858;SDS011;55864;49.238;8.092;2023-06-22T01:28:03;9.05;;;4.90;;
68858;SDS011;55864;49.238;8.092;2023-06-22T01:30:12;10.65;;;4.90;;
68858;SDS011;55864;49.238;8.092;2023-06-22T01:32:16;9.52;;;4.75;;
68858;SDS011;55864;49.238;8.092;2023-06-22T01:34:18;11.73;;;5.30;;
68858;SDS011;55864;49.238;8.092;2023-06-22T01:36:19;9.93;;;5.30;;
68858;SDS011;55864;49.238;8.092;2023-06-22T01:38:22;10.77;;;5.03;;
68858;SDS011;55864;49.238;8.092;2023-06-22T01:40:23;10.50;;;5.13;;
68858;SDS011;55864;49.238;8.092;2023-06-22T01:42:25;8.60;;;5.20;;
68858;SDS011;55864;49.238;8.092;2023-06-22T01:44:26;11.60;;;5.03;;
68858;SDS011;55864;49.238;8.092;2023-06-22T01:46:29;11.00;;;5.15;;
68858;SDS011;55864;49.238;8.092;2023-06-22T01:48:30;8.97;;;4.70;;
68858;SDS011;55864;49.238;8.092;2023-06-22T01:50:31;10.05;;;4.75;;
68858;SDS011;55864;49.238;8.092;2023-06-22T01:52:32;9.18;;;4.80;;
68858;SDS011;55864;49.238;8.092;2023-06-22T01:54:33;8.82;;;5.30;;
68858;SDS011;55864;49.238;8.092;2023-06-22T01:56:33;9.52;;;5.07;;
68858;SDS011;55864;49.238;8.092;2023-06-22T01:58:34;9.98;;;4.88;;
68858;SDS011;55864;49.238;8.092;2023-06-22T02:00:44;9.07;;;5.32;;
68858;SDS011;55864;49.238;8.092;2023-06-22T02:02:52;8.85;;;4.95;;
68858;SDS011;55864;49.238;8.092;2023-06-22T02:04:57;12.73;;;4.95;;
68858;SDS011;55864;49.238;8.092;2023-06-22T02:07:02;9.18;;;5.07;;
68858;SDS011;55864;49.238;8.092;2023-06-22T02:09:09;10.55;;;5.30;;
68858;SDS011;55864;49.238;8.092;2023-06-22T02:11:12;11.63;;;5.70;;
68858;SDS011;55864;49.238;8.092;2023-06-22T02:13:15;9.73;;;5.10;;
68858;SDS011;55864;49.238;8.092;2023-06-22T02:15:16;10.60;;;5.32;;
68858;SDS011;55864;49.238;8.092;2023-06-22T02:17:17;8.52;;;5.03;;
68858;SDS011;55864;49.238;8.092;2023-06-22T02:19:23;9.02;;;4.97;;
68858;SDS011;55864;49.238;8.092;2023-06-22T02:21:24;9.05;;;4.85;;
68858;SDS011;55864;49.238;8.092;2023-06-22T02:23:25;9.10;;;4.93;;
68858;SDS011;55864;49.238;8.092;2023-06-22T02:25:25;11.80;;;5.50;;
68858;SDS011;55864;49.238;8.092;2023-06-22T02:27:26;11.57;;;5.82;;
68858;SDS011;55864;49.238;8.092;2023-06-22T02:29:26;11.15;;;5.43;;
68858;SDS011;55864;49.238;8.092;2023-06-22T02:31:27;10.77;;;5.55;;
68858;SDS011;55864;49.238;8.092;2023-06-22T02:33:27;11.52;;;5.53;;
68858;SDS011;55864;49.238;8.092;2023-06-22T02:35:29;10.20;;;5.50;;
68858;SDS011;55864;49.238;8.092;2023-06-22T02:37:30;11.82;;;6.13;;
68858;SDS011;55864;49.238;8.092;2023-06-22T02:39:30;10.00;;;5.18;;
68858;SDS011;55864;49.238;8.092;2023-06-22T02:41:31;11.23;;;5.72;;
68858;SDS011;55864;49.238;8.092;2023-06-22T02:43:31;11.45;;;5.93;;
68858;SDS011;55864;49.238;8.092;2023-06-22T02:45:32;11.27;;;6.05;;
68858;SDS011;55864;49.238;8.092;2023-06-22T02:47:32;13.75;;;5.88;;
68858;SDS011;55864;49.238;8.092;2023-06-22T02:49:34;10.13;;;5.68;;
68858;SDS011;55864;49.238;8.092;2023-06-22T02:51:38;11.20;;;6.13;;
68858;SDS011;55864;49.238;8.092;2023-06-22T02:53:39;12.98;;;6.38;;
68858;SDS011;55864;49.238;8.092;2023-06-22T02:55:39;9.50;;;5.47;;
68858;SDS011;55864;49.238;8.092;2023-06-22T02:57:40;11.18;;;5.85;;
68858;SDS011;55864;49.238;8.092;2023-06-22T02:59:40;11.05;;;6.28;;
68858;SDS011;55864;49.238;8.092;2023-06-22T03:01:43;9.90;;;6.10;;
68858;SDS011;55864;49.238;8.092;2023-06-22T03:03:52;10.73;;;6.43;;
68858;SDS011;55864;49.238;8.092;2023-06-22T03:05:53;10.52;;;5.97;;
68858;SDS011;55864;49.238;8.092;2023-06-22T03:07:55;10.75;;;6.05;;
68858;SDS011;55864;49.238;8.092;2023-06-22T03:09:56;9.88;;;5.90;;
68858;SDS011;55864;49.238;8.092;2023-06-22T03:11:57;10.50;;;5.90;;
68858;SDS011;55864;49.238;8.092;2023-06-22T03:14:01;10.52;;;6.10;;
68858;SDS011;55864;49.238;8.092;2023-06-22T03:16:02;9.82;;;5.80;;
68858;SDS011;55864;49.238;8.092;2023-06-22T03:18:03;11.30;;;6.40;;
68858;SDS011;55864;49.238;8.092;2023-06-22T03:20:04;9.30;;;5.30;;
68858;SDS011;55864;49.238;8.092;2023-06-22T03:22:06;10.15;;;6.03;;
68858;SDS011;55864;49.238;8.092;2023-06-22T03:24:08;10.98;;;5.90;;
68858;SDS011;55864;49.238;8.092;2023-06-22T03:26:08;10.07;;;5.90;;
68858;SDS011;55864;49.238;8.092;2023-06-22T03:28:09;10.50;;;5.50;;
68858;SDS011;55864;49.238;8.092;2023-06-22T03:30:10;10.32;;;5.70;;
68858;SDS011;55864;49.238;8.092;2023-06-22T03:32:12;10.32;;;5.97;;
68858;SDS011;55864;49.238;8.092;2023-06-22T03:34:12;9.85;;;5.43;;
68858;SDS011;55864;49.238;8.092;2023-06-22T03:36:13;10.82;;;5.45;;
68858;SDS011;55864;49.238;8.092;2023-06-22T03:38:13;13.30;;;6.07;;
68858;SDS011;55864;49.238;8.092;2023-06-22T03:40:15;9.27;;;5.25;;
68858;SDS011;55864;49.238;8.092;2023-06-22T03:42:15;11.13;;;5.90;;
68858;SDS011;55864;49.238;8.092;2023-06-22T03:44:16;10.18;;;5.90;;
68858;SDS011;55864;49.238;8.092;2023-06-22T03:46:17;12.05;;;6.40;;
68858;SDS011;55864;49.238;8.092;2023-06-22T03:48:17;10.68;;;6.10;;
68858;SDS011;55864;49.238;8.092;2023-06-22T03:50:18;10.38;;;6.47;;
68858;SDS011;55864;49.238;8.092;2023-06-22T03:52:18;12.60;;;6.30;;
68858;SDS011;55864;49.238;8.092;2023-06-22T03:54:19;11.32;;;6.15;;
68858;SDS011;55864;49.238;8.092;2023-06-22T03:56:21;11.27;;;6.57;;
68858;SDS011;55864;49.238;8.092;2023-06-22T03:58:21;10.88;;;6.75;;
68858;SDS011;55864;49.238;8.092;2023-06-22T04:00:22;12.02;;;6.35;;
68858;SDS011;55864;49.238;8.092;2023-06-22T04:02:22;10.52;;;6.32;;
68858;SDS011;55864;49.238;8.092;2023-06-22T04:04:23;14.93;;;7.50;;
68858;SDS011;55864;49.238;8.092;2023-06-22T04:06:24;11.45;;;6.70;;
68858;SDS011;55864;49.238;8.092;2023-06-22T04:08:24;11.85;;;6.93;;
68858;SDS011;55864;49.238;8.092;2023-06-22T04:10:25;10.63;;;6.80;;
68858;SDS011;55864;49.238;8.092;2023-06-22T04:12:26;11.48;;;7.13;;
68858;SDS011;55864;49.238;8.092;2023-06-22T04:14:27;11.23;;;6.78;;
68858;SDS011;55864;49.238;8.092;2023-06-22T04:16:27;13.43;;;7.75;;
68858;SDS011;55864;49.238;8.092;2023-06-22T04:18:28;14.95;;;7.60;;
68858;SDS011;55864;49.238;8.092;2023-06-22T04:20:28;13.27;;;7.45;;
68858;SDS011;55864;49.238;8.092;2023-06-22T04:22:29;13.07;;;7.65;;
68858;SDS011;55864;49.238;8.092;2023-06-22T04:24:29;13.82;;;7.55;;
68858;SDS011;55864;49.238;8.092;2023-06-22T04:26:30;14.40;;;7.90;;
68858;SDS011;55864;49.238;8.092;2023-06-22T04:28:32;12.18;;;7.63;;
68858;SDS011;55864;49.238;8.092;2023-06-22T04:30:32;13.52;;;8.10;;
68858;SDS011;55864;49.238;8.092;2023-06-22T04:32:33;12.77;;;7.95;;
68858;SDS011;55864;49.238;8.092;2023-06-22T04:34:34;14.75;;;8.38;;
68858;SDS011;55864;49.238;8.092;2023-06-22T04:36:34;15.02;;;8.40;;
68858;SDS011;55864;49.238;8.092;2023-06-22T04:38:35;13.07;;;7.97;;
68858;SDS011;55864;49.238;8.092;2023-06-22T04:40:36;13.02;;;8.10;;
68858;SDS011;55864;49.238;8.092;2023-06-22T04:42:37;16.45;;;8.07;;
68858;SDS011;55864;49.238;8.092;2023-06-22T04:44:40;12.13;;;7.90;;
68858;SDS011;55864;49.238;8.092;2023-06-22T04:46:40;13.70;;;8.00;;
68858;SDS011;55864;49.238;8.092;2023-06-22T04:48:41;13.75;;;7.82;;
68858;SDS011;55864;49.238;8.092;2023-06-22T04:50:41;12.23;;;8.23;;
68858;SDS011;55864;49.238;8.092;2023-06-22T04:52:42;14.82;;;8.88;;
68858;SDS011;55864;49.238;8.092;2023-06-22T04:54:43;15.68;;;9.07;;
68858;SDS011;55864;49.238;8.092;2023-06-22T04:56:43;14.82;;;8.98;;
68858;SDS011;55864;49.238;8.092;2023-06-22T04:58:44;16.67;;;9.75;;
68858;SDS011;55864;49.238;8.092;2023-06-22T05:00:45;15.25;;;10.23;;
68858;SDS011;55864;49.238;8.092;2023-06-22T05:02:46;14.82;;;9.77;;
68858;SDS011;55864;49.238;8.092;2023-06-22T05:04:47;14.32;;;8.77;;
68858;SDS011;55864;49.238;8.092;2023-06-22T05:06:47;15.90;;;9.50;;
68858;SDS011;55864;49.238;8.092;2023-06-22T05:08:48;14.60;;;9.43;;
68858;SDS011;55864;49.238;8.092;2023-06-22T05:10:48;13.75;;;9.07;;
68858;SDS011;55864;49.238;8.092;2023-06-22T05:12:49;15.52;;;9.95;;
68858;SDS011;55864;49.238;8.092;2023-06-22T05:14:49;14.13;;;9.10;;
68858;SDS011;55864;49.238;8.092;2023-06-22T05:16:51;13.23;;;8.70;;
68858;SDS011;55864;49.238;8.092;2023-06-22T05:18:52;16.38;;;9.43;;
68858;SDS011;55864;49.238;8.092;2023-06-22T05:20:53;14.35;;;8.50;;
68858;SDS011;55864;49.238;8.092;2023-06-22T05:22:53;14.93;;;8.50;;
68858;SDS011;55864;49.238;8.092;2023-06-22T05:24:54;15.07;;;8.63;;
68858;SDS011;55864;49.238;8.092;2023-06-22T05:26:54;13.95;;;8.48;;
68858;SDS011;55864;49.238;8.092;2023-06-22T05:28:55;12.73;;;8.05;;
68858;SDS011;55864;49.238;8.092;2023-06-22T05:30:56;14.10;;;8.00;;
68858;SDS011;55864;49.238;8.092;2023-06-22T05:32:57;15.77;;;8.70;;
68858;SDS011;55864;49.238;8.092;2023-06-22T05:34:58;14.15;;;7.93;;
68858;SDS011;55864;49.238;8.092;2023-06-22T05:36:59;13.30;;;8.27;;
68858;SDS011;55864;49.238;8.092;2023-06-22T05:39:00;11.48;;;8.13;;
68858;SDS011;55864;49.238;8.092;2023-06-22T05:41:11;13.98;;;8.95;;
68858;SDS011;55864;49.238;8.092;2023-06-22T05:43:12;12.52;;;7.93;;
68858;SDS011;55864;49.238;8.092;2023-06-22T05:45:12;15.70;;;8.75;;
68858;SDS011;55864;49.238;8.092;2023-06-22T05:47:13;12.75;;;8.35;;
68858;SDS011;55864;49.238;8.092;2023-06-22T05:49:15;15.32;;;7.95;;
68858;SDS011;55864;49.238;8.092;2023-06-22T05:51:15;13.73;;;7.60;;
68858;SDS011;55864;49.238;8.092;2023-06-22T05:53:16;13.40;;;7.90;;
68858;SDS011;55864;49.238;8.092;2023-06-22T05:55:17;14.75;;;8.35;;
68858;SDS011;55864;49.238;8.092;2023-06-22T05:57:17;13.95;;;7.10;;
68858;SDS011;55864;49.238;8.092;2023-06-22T05:59:18;14.50;;;7.15;;
68858;SDS011;55864;49.238;8.092;2023-06-22T06:01:18;11.98;;;7.60;;
68858;SDS011;55864;49.238;8.092;2023-06-22T06:03:19;14.38;;;7.60;;
68858;SDS011;55864;49.238;8.092;2023-06-22T06:05:20;12.65;;;8.05;;
68858;SDS011;55864;49.238;8.092;2023-06-22T06:07:21;11.93;;;7.05;;
68858;SDS011;55864;49.238;8.092;2023-06-22T06:09:21;12.23;;;7.32;;
68858;SDS011;55864;49.238;8.092;2023-06-22T06:11:22;12.50;;;7.07;;
68858;SDS011;55864;49.238;8.092;2023-06-22T06:13:23;12.55;;;7.68;;
68858;SDS011;55864;49.238;8.092;2023-06-22T06:15:23;11.95;;;7.72;;
68858;SDS011;55864;49.238;8.092;2023-06-22T06:17:24;12.27;;;7.95;;
68858;SDS011;55864;49.238;8.092;2023-06-22T06:19:24;12.73;;;8.05;;
68858;SDS011;55864;49.238;8.092;2023-06-22T06:21:26;14.68;;;8.10;;
68858;SDS011;55864;49.238;8.092;2023-06-22T06:23:26;15.65;;;8.20;;
68858;SDS011;55864;49.238;8.092;2023-06-22T06:25:27;14.02;;;8.07;;
68858;SDS011;55864;49.238;8.092;2023-06-22T06:27:27;13.27;;;8.20;;
68858;SDS011;55864;49.238;8.092;2023-06-22T06:29:28;16.02;;;8.23;;
68858;SDS011;55864;49.238;8.092;2023-06-22T06:31:28;13.23;;;8.38;;
68858;SDS011;55864;49.238;8.092;2023-06-22T06:33:29;17.67;;;9.55;;
68858;SDS011;55864;49.238;8.092;2023-06-22T06:35:29;19.15;;;10.00;;
68858;SDS011;55864;49.238;8.092;2023-06-22T06:37:31;16.50;;;9.65;;
68858;SDS011;55864;49.238;8.092;2023-06-22T06:39:32;18.75;;;9.52;;
68858;SDS011;55864;49.238;8.092;2023-06-22T06:41:32;16.17;;;8.93;;
68858;SDS011;55864;49.238;8.092;2023-06-22T06:43:34;15.20;;;8.57;;
68858;SDS011;55864;49.238;8.092;2023-06-22T06:45:35;17.85;;;8.82;;
68858;SDS011;55864;49.238;8.092;2023-06-22T06:47:35;16.00;;;8.90;;
68858;SDS011;55864;49.238;8.092;2023-06-22T06:49:36;18.48;;;8.35;;
68858;SDS011;55864;49.238;8.092;2023-06-22T06:51:36;18.52;;;10.00;;
68858;SDS011;55864;49.238;8.092;2023-06-22T06:53:38;15.65;;;9.18;;
68858;SDS011;55864;49.238;8.092;2023-06-22T06:55:39;15.75;;;9.00;;
68858;SDS011;55864;49.238;8.092;2023-06-22T06:57:39;12.73;;;8.40;;
68858;SDS011;55864;49.238;8.092;2023-06-22T06:59:40;12.45;;;8.10;;
68858;SDS011;55864;49.238;8.092;2023-06-22T07:01:41;14.85;;;8.23;;
68858;SDS011;55864;49.238;8.092;2023-06-22T07:03:41;15.50;;;8.80;;
68858;SDS011;55864;49.238;8.092;2023-06-22T07:05:42;19.25;;;9.30;;
68858;SDS011;55864;49.238;8.092;2023-06-22T07:07:43;14.45;;;8.27;;
68858;SDS011;55864;49.238;8.092;2023-06-22T07:09:44;13.02;;;8.02;;
68858;SDS011;55864;49.238;8.092;2023-06-22T07:11:45;15.18;;;8.02;;
68858;SDS011;55864;49.238;8.092;2023-06-22T07:13:45;17.20;;;8.60;;
68858;SDS011;55864;49.238;8.092;2023-06-22T07:15:46;15.18;;;8.35;;
68858;SDS011;55864;49.238;8.092;2023-06-22T07:17:46;15.75;;;8.75;;
68858;SDS011;55864;49.238;8.092;2023-06-22T07:19:47;14.90;;;8.80;;
68858;SDS011;55864;49.238;8.092;2023-06-22T07:21:47;21.75;;;9.15;;
68858;SDS011;55864;49.238;8.092;2023-06-22T07:23:48;15.32;;;8.60;;
68858;SDS011;55864;49.238;8.092;2023-06-22T07:25:50;14.27;;;8.60;;
68858;SDS011;55864;49.238;8.092;2023-06-22T07:27:56;16.27;;;7.78;;
68858;SDS011;55864;49.238;8.092;2023-06-22T07:29:58;15.65;;;8.77;;
68858;SDS011;55864;49.238;8.092;2023-06-22T07:31:58;15.02;;;8.27;;
68858;SDS011;55864;49.238;8.092;2023-06-22T07:33:59;15.88;;;8.73;;
68858;SDS011;55864;49.238;8.092;2023-06-22T07:35:59;14.80;;;7.97;;
68858;SDS011;55864;49.238;8.092;2023-06-22T07:38:00;12.63;;;7.85;;
68858;SDS011;55864;49.238;8.092;2023-06-22T07:40:00;12.55;;;7.68;;
68858;SDS011;55864;49.238;8.092;2023-06-22T07:42:02;16.80;;;8.45;;
68858;SDS011;55864;49.238;8.092;2023-06-22T07:44:03;15.27;;;7.75;;
68858;SDS011;55864;49.238;8.092;2023-06-22T07:46:04;17.95;;;7.68;;
68858;SDS011;55864;49.238;8.092;2023-06-22T07:48:04;16.95;;;8.32;;
68858;SDS011;55864;49.238;8.092;2023-06-22T07:50:05;13.10;;;7.43;;
68858;SDS011;55864;49.238;8.092;2023-06-22T07:52:06;12.73;;;7.88;;
68858;SDS011;55864;49.238;8.092;2023-06-22T07:54:08;15.48;;;8.75;;
68858;SDS011;55864;49.238;8.092;2023-06-22T07:56:09;17.00;;;7.40;;
68858;SDS011;55864;49.238;8.092;2023-06-22T07:58:11;14.05;;;7.93;;
68858;SDS011;55864;49.238;8.092;2023-06-22T08:00:12;14.40;;;7.63;;
68858;SDS011;55864;49.238;8.092;2023-06-22T08:02:13;12.98;;;6.88;;
68858;SDS011;55864;49.238;8.092;2023-06-22T08:04:13;11.43;;;7.50;;
68858;SDS011;55864;49.238;8.092;2023-06-22T08:06:14;12.25;;;7.18;;
68858;SDS011;55864;49.238;8.092;2023-06-22T08:08:14;14.50;;;6.97;;
68858;SDS011;55864;49.238;8.092;2023-06-22T08:10:15;13.70;;;7.20;;
68858;SDS011;55864;49.238;8.092;2023-06-22T08:12:16;12.48;;;7.28;;
68858;SDS011;55864;49.238;8.092;2023-06-22T08:14:18;10.45;;;6.55;;
68858;SDS011;55864;49.238;8.092;2023-06-22T08:16:18;11.20;;;6.70;;
68858;SDS011;55864;49.238;8.092;2023-06-22T08:18:19;11.90;;;6.53;;
68858;SDS011;55864;49.238;8.092;2023-06-22T08:20:19;12.23;;;6.82;;
68858;SDS011;55864;49.238;8.092;2023-06-22T08:22:20;11.80;;;6.10;;
68858;SDS011;55864;49.238;8.092;2023-06-22T08:24:20;10.13;;;6.10;;
68858;SDS011;55864;49.238;8.092;2023-06-22T08:26:21;10.07;;;6.03;;
68858;SDS011;55864;49.238;8.092;2023-06-22T08:28:21;12.38;;;5.60;;
68858;SDS011;55864;49.238;8.092;2023-06-22T08:30:23;13.32;;;6.60;;
68858;SDS011;55864;49.238;8.092;2023-06-22T08:32:24;13.00;;;6.83;;
68858;SDS011;55864;49.238;8.092;2023-06-22T08:34:24;13.85;;;6.55;;
68858;SDS011;55864;49.238;8.092;2023-06-22T08:36:25;11.60;;;6.45;;
68858;SDS011;55864;49.238;8.092;2023-06-22T08:38:25;11.18;;;5.75;;
68858;SDS011;55864;49.238;8.092;2023-06-22T08:40:26;9.63;;;5.82;;
68858;SDS011;55864;49.238;8.092;2023-06-22T08:42:27;8.82;;;5.88;;
68858;SDS011;55864;49.238;8.092;2023-06-22T08:44:27;12.63;;;5.50;;
68858;SDS011;55864;49.238;8.092;2023-06-22T08:46:29;12.02;;;7.63;;
68858;SDS011;55864;49.238;8.092;2023-06-22T08:48:29;12.13;;;6.18;;
68858;SDS011;55864;49.238;8.092;2023-06-22T08:50:30;11.25;;;5.97;;
68858;SDS011;55864;49.238;8.092;2023-06-22T08:52:31;10.43;;;5.50;;
68858;SDS011;55864;49.238;8.092;2023-06-22T08:54:31;8.93;;;5.57;;
68858;SDS011;55864;49.238;8.092;2023-06-22T08:56:32;10.07;;;5.35;;
68858;SDS011;55864;49.238;8.092;2023-06-22T08:58:32;9.73;;;5.75;;
68858;SDS011;55864;49.238;8.092;2023-06-22T09:00:33;12.23;;;6.15;;
68858;SDS011;55864;49.238;8.092;2023-06-22T09:02:34;12.63;;;5.72;;
68858;SDS011;55864;49.238;8.092;2023-06-22T09:04:35;11.02;;;6.10;;
68858;SDS011;55864;49.238;8.092;2023-06-22T09:06:35;10.73;;;5.70;;
68858;SDS011;55864;49.238;8.092;2023-06-22T09:08:36;16.85;;;5.70;;
68858;SDS011;55864;49.238;8.092;2023-06-22T09:10:36;12.43;;;5.40;;
68858;SDS011;55864;49.238;8.092;2023-06-22T09:12:37;10.60;;;5.53;;
68858;SDS011;55864;49.238;8.092;2023-06-22T09:14:39;10.38;;;5.85;;
68858;SDS011;55864;49.238;8.092;2023-06-22T09:16:39;10.88;;;5.18;;
68858;SDS011;55864;49.238;8.092;2023-06-22T09:18:41;13.05;;;6.57;;
68858;SDS011;55864;49.238;8.092;2023-06-22T09:20:42;11.80;;;6.25;;
68858;SDS011;55864;49.238;8.092;2023-06-22T09:22:42;13.05;;;6.13;;
68858;SDS011;55864;49.238;8.092;2023-06-22T09:24:43;11.70;;;6.20;;
68858;SDS011;55864;49.238;8.092;2023-06-22T09:26:44;12.27;;;5.97;;
68858;SDS011;55864;49.238;8.092;2023-06-22T09:28:44;12.00;;;6.45;;
68858;SDS011;55864;49.238;8.092;2023-06-22T09:30:45;12.18;;;6.22;;
68858;SDS011;55864;49.238;8.092;2023-06-22T09:32:45;13.45;;;6.35;;
68858;SDS011;55864;49.238;8.092;2023-06-22T09:34:47;11.80;;;6.18;;
68858;SDS011;55864;49.238;8.092;2023-06-22T09:36:48;11.90;;;6.13;;
68858;SDS011;55864;49.238;8.092;2023-06-22T09:38:48;12.77;;;6.10;;
68858;SDS011;55864;49.238;8.092;2023-06-22T09:40:49;11.30;;;6.13;;
68858;SDS011;55864;49.238;8.092;2023-06-22T09:42:50;13.65;;;6.57;;
68858;SDS011;55864;49.238;8.092;2023-06-22T09:44:50;12.85;;;6.50;;
68858;SDS011;55864;49.238;8.092;2023-06-22T09:46:51;12.63;;;6.15;;
68858;SDS011;55864;49.238;8.092;2023-06-22T09:48:53;11.57;;;7.10;;
68858;SDS011;55864;49.238;8.092;2023-06-22T09:50:55;10.13;;;6.20;;
68858;SDS011;55864;49.238;8.092;2023-06-22T09:52:55;10.23;;;6.53;;
68858;SDS011;55864;49.238;8.092;2023-06-22T09:54:56;13.05;;;6.65;;
68858;SDS011;55864;49.238;8.092;2023-06-22T09:56:56;11.43;;;6.60;;
68858;SDS011;55864;49.238;8.092;2023-06-22T09:58:57;11.15;;;6.45;;
68858;SDS011;55864;49.238;8.092;2023-06-22T10:00:57;11.98;;;6.88;;
68858;SDS011;55864;49.238;8.092;2023-06-22T10:02:58;12.15;;;6.63;;
68858;SDS011;55864;49.238;8.092;2023-06-22T10:04:58;12.13;;;6.10;;
68858;SDS011;55864;49.238;8.092;2023-06-22T10:07:00;13.00;;;6.25;;
68858;SDS011;55864;49.238;8.092;2023-06-22T10:09:01;11.23;;;6.53;;
68858;SDS011;55864;49.238;8.092;2023-06-22T10:11:03;12.55;;;6.40;;
68858;SDS011;55864;49.238;8.092;2023-06-22T10:13:07;13.65;;;7.03;;
68858;SDS011;55864;49.238;8.092;2023-06-22T10:15:09;11.75;;;6.60;;
68858;SDS011;55864;49.238;8.092;2023-06-22T10:17:10;11.80;;;7.10;;
68858;SDS011;55864;49.238;8.092;2023-06-22T10:19:10;11.30;;;6.07;;
68858;SDS011;55864;49.238;8.092;2023-06-22T10:21:11;14.02;;;6.88;;
68858;SDS011;55864;49.238;8.092;2023-06-22T10:23:13;12.02;;;6.32;;
68858;SDS011;55864;49.238;8.092;2023-06-22T10:25:13;11.82;;;6.45;;
68858;SDS011;55864;49.238;8.092;2023-06-22T10:27:14;13.35;;;6.22;;
68858;SDS011;55864;49.238;8.092;2023-06-22T10:29:15;11.65;;;5.90;;
68858;SDS011;55864;49.238;8.092;2023-06-22T10:31:15;10.65;;;6.22;;
68858;SDS011;55864;49.238;8.092;2023-06-22T10:33:16;11.75;;;5.90;;
68858;SDS011;55864;49.238;8.092;2023-06-22T10:35:16;11.30;;;6.05;;
68858;SDS011;55864;49.238;8.092;2023-06-22T10:37:17;12.18;;;6.32;;
68858;SDS011;55864;49.238;8.092;2023-06-22T10:39:19;11.35;;;6.05;;
68858;SDS011;55864;49.238;8.092;2023-06-22T10:41:19;12.75;;;6.15;;
68858;SDS011;55864;49.238;8.092;2023-06-22T10:43:20;11.52;;;6.22;;
68858;SDS011;55864;49.238;8.092;2023-06-22T10:45:20;11.23;;;5.90;;
68858;SDS011;55864;49.238;8.092;2023-06-22T10:47:21;9.90;;;5.88;;
68858;SDS011;55864;49.238;8.092;2023-06-22T10:49:21;10.77;;;6.38;;
68858;SDS011;55864;49.238;8.092;2023-06-22T10:51:22;14.85;;;6.00;;
68858;SDS011;55864;49.238;8.092;2023-06-22T10:53:22;11.05;;;5.63;;
68858;SDS011;55864;49.238;8.092;2023-06-22T10:55:24;11.55;;;6.00;;
68858;SDS011;55864;49.238;8.092;2023-06-22T10:57:25;10.65;;;5.72;;
68858;SDS011;55864;49.238;8.092;2023-06-22T10:59:25;12.30;;;5.95;;
68858;SDS011;55864;49.238;8.092;2023-06-22T11:01:26;11.85;;;6.22;;
68858;SDS011;55864;49.238;8.092;2023-06-22T11:03:27;12.98;;;5.72;;
68858;SDS011;55864;49.238;8.092;2023-06-22T11:05:27;11.57;;;6.07;;
68858;SDS011;55864;49.238;8.092;2023-06-22T11:07:28;15.40;;;6.20;;
68858;SDS011;55864;49.238;8.092;2023-06-22T11:09:29;10.95;;;5.70;;
68858;SDS011;55864;49.238;8.092;2023-06-22T11:11:30;12.52;;;5.55;;
68858;SDS011;55864;49.238;8.092;2023-06-22T11:13:31;13.50;;;5.60;;
68858;SDS011;55864;49.238;8.092;2023-06-22T11:15:31;13.30;;;7.10;;
68858;SDS011;55864;49.238;8.092;2023-06-22T11:17:32;16.23;;;6.20;;
68858;SDS011;55864;49.238;8.092;2023-06-22T11:19:32;12.57;;;6.07;;
68858;SDS011;55864;49.238;8.092;2023-06-22T11:21:33;11.80;;;5.72;;
68858;SDS011;55864;49.238;8.092;2023-06-22T11:23:33;11.27;;;6.10;;
68858;SDS011;55864;49.238;8.092;2023-06-22T11:25:34;11.25;;;5.75;;
68858;SDS011;55864;49.238;8.092;2023-06-22T11:27:36;12.45;;;5.57;;
68858;SDS011;55864;49.238;8.092;2023-06-22T11:29:36;14.18;;;6.38;;
68858;SDS011;55864;49.238;8.092;2023-06-22T11:31:37;11.52;;;5.70;;
68858;SDS011;55864;49.238;8.092;2023-06-22T11:33:37;13.32;;;5.90;;
68858;SDS011;55864;49.238;8.092;2023-06-22T11:35:38;12.27;;;6.30;;
68858;SDS011;55864;49.238;8.092;2023-06-22T11:37:38;12.27;;;6.10;;
68858;SDS011;55864;49.238;8.092;2023-06-22T11:39:39;12.80;;;6.32;;
68858;SDS011;55864;49.238;8.092;2023-06-22T11:41:39;11.75;;;5.82;;
68858;SDS011;55864;49.238;8.092;2023-06-22T11:43:41;13.23;;;5.40;;
68858;SDS011;55864;49.238;8.092;2023-06-22T11:45:42;12.57;;;5.90;;
68858;SDS011;55864;49.238;8.092;2023-06-22T11:47:42;13.57;;;5.68;;
68858;SDS011;55864;49.238;8.092;2023-06-22T11:49:43;13.48;;;6.45;;
68858;SDS011;55864;49.238;8.092;2023-06-22T11:51:43;15.25;;;5.97;;
68858;SDS011;55864;49.238;8.092;2023-06-22T11:53:44;13.35;;;6.15;;
68858;SDS011;55864;49.238;8.092;2023-06-22T11:55:44;12.90;;;5.60;;
68858;SDS011;55864;49.238;8.092;2023-06-22T11:57:54;12.55;;;5.70;;
68858;SDS011;55864;49.238;8.092;2023-06-22T11:59:57;15.32;;;5.32;;